createdAt,value
2018-11-12T00:01:23.350Z,70.10
2018-11-12T00:03:54.368Z,70.10
2018-11-12T00:06:24.562Z,69.90
2018-11-12T00:08:56.697Z,69.80
2018-11-12T00:11:26.786Z,69.70
2018-11-12T00:13:57.060Z,69.50
2018-11-12T00:16:27.110Z,69.40
2018-11-12T00:19:04.661Z,69.40
2018-11-12T00:21:34.685Z,69.30
2018-11-12T00:24:06.345Z,69.20
2018-11-12T00:29:24.716Z,69.10
2018-11-12T00:32:09.136Z,69.20
2018-11-12T00:34:47.793Z,68.90
2018-11-12T00:39:59.942Z,68.80
2018-11-12T00:42:30.581Z,68.90
2018-11-12T00:45:01.419Z,68.90
2018-11-12T00:47:34.047Z,68.90
2018-11-12T00:50:07.615Z,68.90
2018-11-12T00:52:39.792Z,68.90
2018-11-12T00:55:11.731Z,68.90
2018-11-12T00:57:42.162Z,69.00
2018-11-12T01:00:24.593Z,69.00
2018-11-12T01:02:55.190Z,69.00
2018-11-12T01:05:25.672Z,68.90
2018-11-12T01:07:56.357Z,68.70
2018-11-12T01:10:27.854Z,68.60
2018-11-12T01:13:04.370Z,68.60
2018-11-12T01:15:34.236Z,68.60
2018-11-12T01:18:09.628Z,68.60
2018-11-12T01:20:39.378Z,68.40
2018-11-12T01:23:09.050Z,68.60
2018-11-12T01:25:39.724Z,68.70
2018-11-12T01:28:10.179Z,68.60
2018-11-12T01:30:41.355Z,68.70
2018-11-12T01:33:12.222Z,68.70
2018-11-12T01:35:43.413Z,69.00
2018-11-12T01:38:13.857Z,68.90
2018-11-12T01:40:45.216Z,68.90
2018-11-12T01:43:19.428Z,68.90
2018-11-12T01:45:51.335Z,68.90
2018-11-12T01:48:22.063Z,68.90
2018-11-12T01:50:52.764Z,68.80
2018-11-12T01:53:24.035Z,68.90
2018-11-12T01:55:55.355Z,69.20
2018-11-12T01:58:26.047Z,69.20
2018-11-12T02:00:57.152Z,69.40
2018-11-12T02:03:28.445Z,69.50
2018-11-12T02:06:00.105Z,69.60
2018-11-12T02:08:31.131Z,69.70
2018-11-12T02:11:03.844Z,69.90
2018-11-12T02:13:37.206Z,70.00
2018-11-12T02:16:10.131Z,70.00
2018-11-12T02:18:40.011Z,70.10
2018-11-12T02:21:11.527Z,70.10
2018-11-12T02:23:42.394Z,70.20
2018-11-12T02:26:12.685Z,70.30
2018-11-12T02:28:45.287Z,70.30
2018-11-12T02:31:15.030Z,70.30
2018-11-12T02:33:46.192Z,70.30
2018-11-12T02:36:17.082Z,70.20
2018-11-12T02:38:48.585Z,70.30
2018-11-12T02:41:22.081Z,70.20
2018-11-12T02:43:52.548Z,70.30
2018-11-12T02:46:23.863Z,70.30
2018-11-12T02:48:56.642Z,70.20
2018-11-12T02:51:26.451Z,70.50
2018-11-12T02:53:56.867Z,70.30
2018-11-12T02:56:28.954Z,70.30
2018-11-12T02:58:59.187Z,70.30
2018-11-12T03:01:30.620Z,70.40
2018-11-12T03:04:02.456Z,70.40
2018-11-12T03:06:33.652Z,70.50
2018-11-12T03:09:09.813Z,70.50
2018-11-12T03:11:39.642Z,71.00
2018-11-12T03:14:10.319Z,70.50
2018-11-12T03:16:44.900Z,70.50
2018-11-12T03:19:19.052Z,70.60
2018-11-12T03:21:56.626Z,70.60
2018-11-12T03:24:30.827Z,70.70
2018-11-12T03:27:03.274Z,70.80
2018-11-12T03:29:33.101Z,70.80
2018-11-12T03:32:03.144Z,70.80
2018-11-12T03:34:33.930Z,70.90
2018-11-12T03:37:06.581Z,71.00
2018-11-12T03:39:38.973Z,71.10
2018-11-12T03:42:22.249Z,71.10
2018-11-12T03:44:54.283Z,71.10
2018-11-12T03:47:29.486Z,71.10
2018-11-12T03:49:59.166Z,71.10
2018-11-12T03:52:30.705Z,71.10
2018-11-12T03:55:00.576Z,71.10
2018-11-12T03:57:33.312Z,71.10
2018-11-12T04:00:03.793Z,71.10
2018-11-12T04:02:34.124Z,71.20
2018-11-12T04:05:07.133Z,71.20
2018-11-12T04:07:37.221Z,71.20
2018-11-12T04:10:14.777Z,71.10
2018-11-12T04:12:44.524Z,71.10
2018-11-12T04:15:16.101Z,71.10
2018-11-12T04:17:48.335Z,71.10
2018-11-12T04:20:19.302Z,71.10
2018-11-12T04:22:53.980Z,71.10
2018-11-12T04:25:23.475Z,71.10
2018-11-12T04:27:53.073Z,70.90
2018-11-12T04:30:22.511Z,70.80
2018-11-12T04:32:51.950Z,70.80
2018-11-12T04:35:22.105Z,70.80
2018-11-12T04:37:52.104Z,70.90
2018-11-12T04:40:21.633Z,71.00
2018-11-12T04:42:52.670Z,71.00
2018-11-12T04:45:23.508Z,70.90
2018-11-12T04:47:58.440Z,70.90
2018-11-12T04:50:29.913Z,70.90
2018-11-12T04:53:02.005Z,70.90
2018-11-12T04:55:32.570Z,71.00
2018-11-12T04:58:03.872Z,70.90
2018-11-12T05:00:35.784Z,71.00
2018-11-12T05:03:07.233Z,71.10
2018-11-12T05:05:39.076Z,71.20
2018-11-12T05:08:10.524Z,71.30
2018-11-12T05:10:42.393Z,71.30
2018-11-12T05:13:14.073Z,71.40
2018-11-12T05:15:45.553Z,72.10
2018-11-12T05:18:16.753Z,71.40
2018-11-12T05:20:48.226Z,71.40
2018-11-12T05:23:19.292Z,71.40
2018-11-12T05:25:50.307Z,71.40
2018-11-12T05:28:20.764Z,71.40
2018-11-12T05:30:52.852Z,71.40
2018-11-12T05:33:24.846Z,71.40
2018-11-12T05:35:55.510Z,71.50
2018-11-12T05:38:26.494Z,71.50
2018-11-12T05:40:59.114Z,71.50
2018-11-12T05:43:30.577Z,71.60
2018-11-12T05:46:03.018Z,71.60
2018-11-12T05:48:34.772Z,71.60
2018-11-12T05:51:05.605Z,71.50
2018-11-12T05:53:36.952Z,71.50
2018-11-12T05:56:07.534Z,71.50
2018-11-12T05:58:37.441Z,71.60
2018-11-12T06:01:10.260Z,71.60
2018-11-12T06:03:42.648Z,71.60
2018-11-12T06:06:13.515Z,71.60
2018-11-12T06:08:44.712Z,71.60
2018-11-12T06:11:17.876Z,71.60
2018-11-12T06:13:47.407Z,71.60
2018-11-12T06:16:20.484Z,71.60
2018-11-12T06:18:52.022Z,71.60
2018-11-12T06:21:21.814Z,71.60
2018-11-12T06:23:53.953Z,71.50
2018-11-12T06:26:25.172Z,71.50
2018-11-12T06:28:57.584Z,71.50
2018-11-12T06:31:29.035Z,71.50
2018-11-12T06:34:02.386Z,71.50
2018-11-12T06:36:32.136Z,71.50
2018-11-12T06:39:02.755Z,71.40
2018-11-12T06:41:32.467Z,71.50
2018-11-12T06:44:04.174Z,71.30
2018-11-12T06:46:47.796Z,71.30
2018-11-12T06:49:21.798Z,71.20
2018-11-12T06:51:54.250Z,71.00
2018-11-12T06:54:24.753Z,71.00
2018-11-12T06:56:55.955Z,70.80
2018-11-12T06:59:26.347Z,70.80
2018-11-12T07:02:00.477Z,70.80
2018-11-12T07:04:30.403Z,70.70
2018-11-12T07:07:00.953Z,70.80
2018-11-12T07:09:31.474Z,70.80
2018-11-12T07:12:02.506Z,71.30
2018-11-12T07:14:33.141Z,70.80
2018-11-12T07:17:06.577Z,70.70
2018-11-12T07:19:38.759Z,70.70
2018-11-12T07:22:10.194Z,70.70
2018-11-12T07:24:39.858Z,70.70
2018-11-12T07:27:09.743Z,70.70
2018-11-12T07:29:40.976Z,70.70
2018-11-12T07:32:12.917Z,70.80
2018-11-12T07:34:45.655Z,70.80
2018-11-12T07:37:18.204Z,70.80
2018-11-12T07:39:47.893Z,70.80
2018-11-12T07:42:20.531Z,70.70
2018-11-12T07:44:50.960Z,70.60
2018-11-12T07:47:21.340Z,70.60
2018-11-12T07:49:53.989Z,70.60
2018-11-12T07:52:26.536Z,70.50
2018-11-12T07:54:56.342Z,70.50
2018-11-12T07:57:26.711Z,70.50
2018-11-12T07:59:58.151Z,70.60
2018-11-12T08:02:46.982Z,70.70
2018-11-12T08:05:19.889Z,70.70
2018-11-12T08:07:52.626Z,70.70
2018-11-12T08:10:24.565Z,70.90
2018-11-12T08:12:59.233Z,70.80
2018-11-12T08:15:44.050Z,70.80
2018-11-12T08:18:19.050Z,70.70
2018-11-12T08:20:54.573Z,70.70
2018-11-12T08:23:24.559Z,70.80
2018-11-12T08:25:57.525Z,70.90
2018-11-12T08:28:30.678Z,70.80
2018-11-12T08:31:13.976Z,71.00
2018-11-12T08:33:45.115Z,71.00
2018-11-12T08:36:14.849Z,71.10
2018-11-12T08:38:48.169Z,71.20
2018-11-12T08:41:29.522Z,71.10
2018-11-12T08:44:01.251Z,71.20
2018-11-12T08:46:31.049Z,71.10
2018-11-12T08:51:47.508Z,71.70
2018-11-12T08:54:52.277Z,71.00
2018-11-12T08:58:42.181Z,70.90
2018-11-12T09:01:48.747Z,70.80
2018-11-12T09:04:26.249Z,70.60
2018-11-12T09:07:19.224Z,70.60
2018-11-12T09:12:54.505Z,70.50
2018-11-12T09:15:34.952Z,70.80
2018-11-12T09:18:42.476Z,69.80
2018-11-12T09:24:24.023Z,69.40
2018-11-12T09:27:46.889Z,69.30
2018-11-12T09:30:30.496Z,69.10
2018-11-12T09:33:23.074Z,68.50
2018-11-12T09:36:04.768Z,68.20
2018-11-12T09:38:37.292Z,67.80
2018-11-12T09:41:32.251Z,67.50
2018-11-12T09:44:04.239Z,66.90
2018-11-12T09:46:38.767Z,66.30
2018-11-12T09:49:13.114Z,65.70
2018-11-12T09:51:50.540Z,65.10
2018-11-12T09:54:31.603Z,64.60
2018-11-12T09:57:08.209Z,64.10
2018-11-12T09:59:55.939Z,63.90
2018-11-12T10:02:48.334Z,63.50
2018-11-12T10:05:21.910Z,63.00
2018-11-12T10:07:57.324Z,62.90
2018-11-12T10:10:34.372Z,62.90
2018-11-12T10:13:04.866Z,62.80
2018-11-12T10:15:36.861Z,62.80
2018-11-12T10:21:05.244Z,62.40
2018-11-12T10:23:36.019Z,62.30
2018-11-12T10:26:06.062Z,62.40
2018-11-12T10:28:38.200Z,62.40
2018-11-12T10:34:24.019Z,62.50
2018-11-12T10:36:55.520Z,62.40
2018-11-12T10:39:26.251Z,62.20
2018-11-12T10:41:55.704Z,61.90
2018-11-12T10:44:29.828Z,61.90
2018-11-12T10:46:59.871Z,61.70
2018-11-12T10:49:44.242Z,61.70
2018-11-12T10:52:15.232Z,61.30
2018-11-12T10:54:44.955Z,61.20
2018-11-12T10:57:14.849Z,61.00
2018-11-12T10:59:47.636Z,60.70
2018-11-12T11:02:23.027Z,60.30
2018-11-12T11:04:54.927Z,59.80
2018-11-12T11:07:25.513Z,59.60
2018-11-12T11:10:07.709Z,59.40
2018-11-12T11:12:39.892Z,59.30
2018-11-12T11:15:26.144Z,59.20
2018-11-12T11:18:42.815Z,59.10
2018-11-12T11:21:15.618Z,59.20
2018-11-12T11:23:51.959Z,59.10
2018-11-12T11:26:27.679Z,59.10
2018-11-12T11:28:59.322Z,59.10
2018-11-12T11:31:39.196Z,58.90
2018-11-12T11:34:12.951Z,59.00
2018-11-12T11:36:44.440Z,59.00
2018-11-12T11:39:20.320Z,58.70
2018-11-12T11:42:07.680Z,58.70
2018-11-12T11:44:52.831Z,58.70
2018-11-12T11:47:33.538Z,58.60
2018-11-12T11:50:20.561Z,58.40
2018-11-12T11:53:08.993Z,58.20
2018-11-12T11:56:14.038Z,58.00
2018-11-12T11:58:47.004Z,57.80
2018-11-12T12:01:24.783Z,57.40
2018-11-12T12:03:59.993Z,57.30
2018-11-12T12:06:30.436Z,57.10
2018-11-12T12:09:00.815Z,56.70
2018-11-12T12:11:32.835Z,56.50
2018-11-12T12:14:03.404Z,56.30
2018-11-12T12:16:34.240Z,56.10
2018-11-12T12:19:03.974Z,55.90
2018-11-12T12:21:35.970Z,55.70
2018-11-12T12:24:15.435Z,55.70
2018-11-12T12:26:47.651Z,55.60
2018-11-12T12:29:18.226Z,55.40
2018-11-12T12:31:48.199Z,55.30
2018-11-12T12:34:24.413Z,55.00
2018-11-12T12:36:54.592Z,54.90
2018-11-12T12:39:26.186Z,55.00
2018-11-12T12:42:02.282Z,55.10
2018-11-12T12:44:34.508Z,55.20
2018-11-12T12:47:27.662Z,55.10
2018-11-12T12:50:17.958Z,55.00
2018-11-12T12:52:49.475Z,55.10
2018-11-12T12:55:20.482Z,55.00
2018-11-12T12:57:50.419Z,55.00
2018-11-12T13:00:23.949Z,55.00
2018-11-12T13:02:54.208Z,54.90
2018-11-12T13:05:23.864Z,54.80
2018-11-12T13:07:55.184Z,54.70
2018-11-12T13:10:26.627Z,54.60
2018-11-12T13:12:56.851Z,54.40
2018-11-12T13:15:27.918Z,54.20
2018-11-12T13:17:57.973Z,54.10
2018-11-12T13:20:28.680Z,53.90
2018-11-12T13:23:00.485Z,53.70
2018-11-12T13:25:40.049Z,53.80
2018-11-12T13:28:17.600Z,53.60
2018-11-12T13:30:47.232Z,53.40
2018-11-12T13:33:16.859Z,53.50
2018-11-12T13:35:46.324Z,53.50
2018-11-12T13:38:15.977Z,53.50
2018-11-12T13:40:46.295Z,53.50
2018-11-12T13:43:18.109Z,53.70
2018-11-12T13:45:48.573Z,52.90
2018-11-12T13:48:18.194Z,53.00
2018-11-12T13:50:47.753Z,52.90
2018-11-12T13:53:17.680Z,52.90
2018-11-12T13:55:48.651Z,52.70
2018-11-12T13:58:19.298Z,52.80
2018-11-12T14:01:09.019Z,53.10
2018-11-12T14:03:38.892Z,53.10
2018-11-12T14:06:13.344Z,52.80
2018-11-12T14:08:44.111Z,52.70
2018-11-12T14:11:13.875Z,52.50
2018-11-12T14:13:43.865Z,52.40
2018-11-12T14:16:16.482Z,52.20
2018-11-12T14:18:46.606Z,52.20
2018-11-12T14:21:16.550Z,52.10
2018-11-12T14:23:46.042Z,51.90
2018-11-12T14:26:15.848Z,51.90
2018-11-12T14:28:45.530Z,51.30
2018-11-12T14:31:15.818Z,50.50
2018-11-12T14:33:45.990Z,50.00
2018-11-12T14:36:15.850Z,49.40
2018-11-12T14:38:45.374Z,49.00
2018-11-12T14:41:16.530Z,48.70
2018-11-12T14:43:47.179Z,48.50
2018-11-12T14:46:19.561Z,48.60
2018-11-12T14:48:52.782Z,48.50
2018-11-12T14:51:27.036Z,48.50
2018-11-12T14:54:03.099Z,48.10
2018-11-12T14:56:32.885Z,48.10
2018-11-12T14:59:03.277Z,48.10
2018-11-12T15:01:34.164Z,48.20
2018-11-12T15:04:04.221Z,48.00
2018-11-12T15:06:34.464Z,47.90
2018-11-12T15:09:05.655Z,47.90
2018-11-12T15:11:35.027Z,47.80
2018-11-12T15:14:04.603Z,47.90
2018-11-12T15:16:34.212Z,47.90
2018-11-12T15:19:03.955Z,48.00
2018-11-12T15:21:33.424Z,48.10
2018-11-12T15:24:02.959Z,48.20
2018-11-12T15:26:32.425Z,48.40
2018-11-12T15:29:03.889Z,48.60
2018-11-12T15:31:33.185Z,48.70
2018-11-12T15:34:02.859Z,49.00
2018-11-12T15:36:32.292Z,49.10
2018-11-12T15:39:01.914Z,49.30
2018-11-12T15:41:32.042Z,49.50
2018-11-12T15:44:11.753Z,49.70
2018-11-12T15:46:41.423Z,49.80
2018-11-12T15:49:11.069Z,50.10
2018-11-12T15:51:40.504Z,50.30
2018-11-12T15:54:10.073Z,50.40
2018-11-12T15:56:40.035Z,50.60
2018-11-12T15:59:09.526Z,50.80
2018-11-12T16:01:39.035Z,50.90
2018-11-12T16:04:09.076Z,51.10
2018-11-12T16:06:41.871Z,51.30
2018-11-12T16:09:19.193Z,51.60
2018-11-12T16:11:52.965Z,51.80
2018-11-12T16:14:22.502Z,51.70
2018-11-12T16:16:52.006Z,52.00
2018-11-12T16:19:21.705Z,52.20
2018-11-12T16:21:51.326Z,52.50
2018-11-12T16:24:20.969Z,52.70
2018-11-12T16:26:50.518Z,52.90
2018-11-12T16:29:20.189Z,53.00
2018-11-12T16:31:49.556Z,53.20
2018-11-12T16:34:18.925Z,53.40
2018-11-12T16:36:48.958Z,53.60
2018-11-12T16:39:19.503Z,53.70
2018-11-12T16:41:49.468Z,53.90
2018-11-12T16:44:21.226Z,54.20
2018-11-12T16:46:52.857Z,54.50
2018-11-12T16:49:23.876Z,54.60
2018-11-12T16:51:53.878Z,54.80
2018-11-12T16:54:23.593Z,55.00
2018-11-12T16:56:53.913Z,55.30
2018-11-12T16:59:23.551Z,55.50
2018-11-12T17:01:52.987Z,55.70
2018-11-12T17:04:22.525Z,55.90
2018-11-12T17:06:53.439Z,56.10
2018-11-12T17:09:23.215Z,56.30
2018-11-12T17:11:55.855Z,56.40
2018-11-12T17:14:33.651Z,56.60
2018-11-12T17:17:13.649Z,56.70
2018-11-12T17:19:48.629Z,56.90
2018-11-12T17:22:21.173Z,57.10
2018-11-12T17:24:55.341Z,57.10
2018-11-12T17:27:26.866Z,57.20
2018-11-12T17:29:58.494Z,57.40
2018-11-12T17:32:29.223Z,57.50
2018-11-12T17:34:59.282Z,57.70
2018-11-12T17:37:35.424Z,57.70
2018-11-12T17:40:17.240Z,58.50
2018-11-12T17:42:52.353Z,57.90
2018-11-12T17:45:28.946Z,58.00
2018-11-12T17:47:59.717Z,58.10
2018-11-12T17:50:33.487Z,58.10
2018-11-12T17:53:07.791Z,58.20
2018-11-12T17:55:41.819Z,58.40
2018-11-12T17:58:13.549Z,58.40
2018-11-12T18:00:47.264Z,58.50
2018-11-12T18:03:18.987Z,58.50
2018-11-12T18:05:53.327Z,58.40
2018-11-12T18:11:24.800Z,58.50
2018-11-12T18:14:03.884Z,58.50
2018-11-12T18:16:34.716Z,58.70
2018-11-12T18:19:10.609Z,58.70
2018-11-12T18:21:45.233Z,58.70
2018-11-12T18:24:17.056Z,58.70
2018-11-12T18:26:47.409Z,58.80
2018-11-12T18:29:18.380Z,58.80
2018-11-12T18:31:51.410Z,58.80
2018-11-12T18:34:21.424Z,58.90
2018-11-12T18:36:55.151Z,58.90
2018-11-12T18:39:33.220Z,58.90
2018-11-12T18:42:03.635Z,59.10
2018-11-12T18:44:33.361Z,59.10
2018-11-12T18:47:14.238Z,59.40
2018-11-12T18:49:44.317Z,59.40
2018-11-12T18:52:14.675Z,59.40
2018-11-12T18:54:44.458Z,59.30
2018-11-12T18:57:15.469Z,59.60
2018-11-12T18:59:47.561Z,59.60
2018-11-12T19:02:19.754Z,59.70
2018-11-12T19:05:04.791Z,59.90
2018-11-12T19:07:45.553Z,59.90
2018-11-12T19:10:33.808Z,60.00
2018-11-12T19:13:13.283Z,60.10
2018-11-12T19:15:51.762Z,60.20
2018-11-12T19:18:30.730Z,60.50
2018-11-12T19:21:07.090Z,60.60
2018-11-12T19:23:46.436Z,60.70
2018-11-12T19:26:22.885Z,60.80
2018-11-12T19:28:54.183Z,60.70
2018-11-12T19:31:24.308Z,60.80
2018-11-12T19:33:54.311Z,60.90
2018-11-12T19:36:24.303Z,60.90
2018-11-12T19:38:53.891Z,60.90
2018-11-12T19:41:26.381Z,60.90
2018-11-12T19:43:57.663Z,61.00
2018-11-12T19:46:29.241Z,61.00
2018-11-12T19:51:57.957Z,61.10
2018-11-12T19:54:28.544Z,61.20
2018-11-12T19:57:02.651Z,61.20
2018-11-12T20:02:16.217Z,61.20
2018-11-12T20:05:03.597Z,61.20
2018-11-12T20:07:41.420Z,61.20
2018-11-12T20:10:18.297Z,61.30
2018-11-12T20:12:50.857Z,61.40
2018-11-12T20:15:22.568Z,61.50
2018-11-12T20:18:01.879Z,61.70
2018-11-12T20:20:33.881Z,61.80
2018-11-12T20:23:13.044Z,61.80
2018-11-12T20:25:46.906Z,61.80
2018-11-12T20:28:22.050Z,61.80
2018-11-12T20:31:01.613Z,61.90
2018-11-12T20:33:40.996Z,62.00
2018-11-12T20:36:11.189Z,62.10
2018-11-12T20:38:51.181Z,62.10
2018-11-12T20:41:29.146Z,62.20
2018-11-12T20:44:01.416Z,62.10
2018-11-12T20:46:34.342Z,62.20
2018-11-12T20:49:11.545Z,62.30
2018-11-12T20:51:45.911Z,62.30
2018-11-12T20:54:27.495Z,62.30
2018-11-12T20:56:59.637Z,62.40
2018-11-12T20:59:31.722Z,62.40
2018-11-12T21:02:03.547Z,62.50
2018-11-12T21:04:34.716Z,62.60
2018-11-12T21:07:06.827Z,62.60
2018-11-12T21:09:40.632Z,62.60
2018-11-12T21:12:10.436Z,62.70
2018-11-12T21:14:44.618Z,62.80
2018-11-12T21:17:14.247Z,62.80
2018-11-12T21:19:43.940Z,62.90
2018-11-12T21:22:14.824Z,62.90
2018-11-12T21:24:44.871Z,62.90
2018-11-12T21:27:15.725Z,63.00
2018-11-12T21:29:45.596Z,63.10
2018-11-12T21:32:16.063Z,63.20
2018-11-12T21:39:41.339Z,63.30
2018-11-12T21:42:13.190Z,62.70
2018-11-12T21:44:43.326Z,62.90
2018-11-12T21:52:02.221Z,63.30
2018-11-12T21:54:31.970Z,63.00
2018-11-12T21:57:04.716Z,63.20
2018-11-12T21:59:34.548Z,63.50
2018-11-12T22:02:04.890Z,63.80
2018-11-12T22:04:36.876Z,63.90
2018-11-12T22:07:08.713Z,64.00
2018-11-12T22:09:39.162Z,64.00
2018-11-12T22:12:11.434Z,64.10
2018-11-12T22:14:43.138Z,64.10
2018-11-12T22:17:13.944Z,64.10
2018-11-12T22:19:46.209Z,64.10
2018-11-12T22:22:17.534Z,64.00
2018-11-12T22:24:48.413Z,63.90
2018-11-12T22:27:23.165Z,64.00
2018-11-12T22:29:52.947Z,63.90
2018-11-12T22:32:23.695Z,63.80
2018-11-12T22:34:54.674Z,63.70
2018-11-12T22:37:24.678Z,63.60
2018-11-12T22:39:59.104Z,63.60
2018-11-12T22:42:32.398Z,63.50
2018-11-12T22:45:02.988Z,63.50
2018-11-12T22:47:34.093Z,63.60
2018-11-12T22:50:09.551Z,63.60
2018-11-12T22:52:41.913Z,63.50
2018-11-12T22:55:20.885Z,63.50
2018-11-12T22:57:50.713Z,63.40
2018-11-12T23:00:29.077Z,63.30
2018-11-12T23:03:01.726Z,63.30
2018-11-12T23:05:32.106Z,63.20
2018-11-12T23:08:02.524Z,63.10
2018-11-12T23:10:32.120Z,63.10
2018-11-12T23:13:01.981Z,63.20
2018-11-12T23:15:34.299Z,63.10
2018-11-12T23:18:09.591Z,63.10
2018-11-12T23:20:53.472Z,63.10
2018-11-12T23:23:38.263Z,63.10
2018-11-12T23:26:31.161Z,63.00
2018-11-12T23:29:08.688Z,63.10
2018-11-12T23:31:40.441Z,63.00
2018-11-12T23:34:19.543Z,63.10
2018-11-12T23:37:03.818Z,63.10
2018-11-12T23:39:35.621Z,63.10
2018-11-12T23:42:16.815Z,63.00
2018-11-12T23:44:47.696Z,63.10
2018-11-12T23:47:34.154Z,63.10
2018-11-12T23:50:11.550Z,63.10
2018-11-12T23:52:42.422Z,62.90
2018-11-12T23:55:12.293Z,63.00
2018-11-12T23:57:41.779Z,63.00
